Metar z pełnej godziny Komunikat METAR ze strony awiacja.imgw.pl Metar G00 EPWR METAR EPWR 261200Z 28010KT CAVOK 02/M02 Q1010 R11/19//95 =